sensor_id;sensor_type;location;lat;lon;timestamp;P1;durP1;ratioP1;P2;durP2;ratioP2
79064;SDS011;68469;51.502;7.462;2023-11-21T00:02:12;11.95;;;4.40;;
79064;SDS011;68469;51.502;7.462;2023-11-21T00:04:37;15.95;;;10.20;;
79064;SDS011;68469;51.502;7.462;2023-11-21T00:07:03;19.52;;;10.90;;
79064;SDS011;68469;51.502;7.462;2023-11-21T00:09:30;16.42;;;9.93;;
79064;SDS011;68469;51.502;7.462;2023-11-21T00:11:56;14.05;;;5.03;;
79064;SDS011;68469;51.502;7.462;2023-11-21T00:14:22;15.13;;;9.98;;
79064;SDS011;68469;51.502;7.462;2023-11-21T00:16:48;20.25;;;10.90;;
79064;SDS011;68469;51.502;7.462;2023-11-21T00:19:13;21.00;;;10.00;;
79064;SDS011;68469;51.502;7.462;2023-11-21T00:21:39;15.05;;;5.03;;
79064;SDS011;68469;51.502;7.462;2023-11-21T00:24:05;21.10;;;10.80;;
79064;SDS011;68469;51.502;7.462;2023-11-21T00:26:30;19.17;;;9.88;;
79064;SDS011;68469;51.502;7.462;2023-11-21T00:29:01;15.38;;;9.50;;
79064;SDS011;68469;51.502;7.462;2023-11-21T00:31:27;11.20;;;5.35;;
79064;SDS011;68469;51.502;7.462;2023-11-21T00:33:52;17.15;;;9.15;;
79064;SDS011;68469;51.502;7.462;2023-11-21T00:36:20;17.08;;;9.35;;
79064;SDS011;68469;51.502;7.462;2023-11-21T00:38:46;11.38;;;4.82;;
79064;SDS011;68469;51.502;7.462;2023-11-21T00:41:13;17.42;;;9.07;;
79064;SDS011;68469;51.502;7.462;2023-11-21T00:43:38;16.95;;;9.80;;
79064;SDS011;68469;51.502;7.462;2023-11-21T00:46:05;12.30;;;4.28;;
79064;SDS011;68469;51.502;7.462;2023-11-21T00:48:32;17.35;;;9.70;;
79064;SDS011;68469;51.502;7.462;2023-11-21T00:50:58;15.23;;;9.45;;
79064;SDS011;68469;51.502;7.462;2023-11-21T00:53:24;18.38;;;9.77;;
79064;SDS011;68469;51.502;7.462;2023-11-21T00:55:49;17.50;;;9.57;;
79064;SDS011;68469;51.502;7.462;2023-11-21T00:58:17;16.55;;;10.00;;
79064;SDS011;68469;51.502;7.462;2023-11-21T01:00:43;17.63;;;10.38;;
79064;SDS011;68469;51.502;7.462;2023-11-21T01:03:08;17.38;;;5.35;;
79064;SDS011;68469;51.502;7.462;2023-11-21T01:05:34;21.25;;;10.50;;
79064;SDS011;68469;51.502;7.462;2023-11-21T01:08:00;20.02;;;5.30;;
79064;SDS011;68469;51.502;7.462;2023-11-21T01:10:25;14.60;;;8.82;;
79064;SDS011;68469;51.502;7.462;2023-11-21T01:12:51;22.45;;;9.98;;
79064;SDS011;68469;51.502;7.462;2023-11-21T01:15:17;19.65;;;10.20;;
79064;SDS011;68469;51.502;7.462;2023-11-21T01:17:42;14.80;;;6.03;;
79064;SDS011;68469;51.502;7.462;2023-11-21T01:20:08;18.00;;;9.38;;
79064;SDS011;68469;51.502;7.462;2023-11-21T01:22:37;19.42;;;10.35;;
79064;SDS011;68469;51.502;7.462;2023-11-21T01:25:04;13.40;;;5.30;;
79064;SDS011;68469;51.502;7.462;2023-11-21T01:27:32;17.98;;;10.45;;
79064;SDS011;68469;51.502;7.462;2023-11-21T01:29:59;17.77;;;10.23;;
79064;SDS011;68469;51.502;7.462;2023-11-21T01:32:25;9.38;;;4.43;;
79064;SDS011;68469;51.502;7.462;2023-11-21T01:34:50;12.65;;;5.40;;
79064;SDS011;68469;51.502;7.462;2023-11-21T01:37:16;17.45;;;9.57;;
79064;SDS011;68469;51.502;7.462;2023-11-21T01:39:42;15.55;;;10.05;;
79064;SDS011;68469;51.502;7.462;2023-11-21T01:42:09;17.15;;;11.07;;
79064;SDS011;68469;51.502;7.462;2023-11-21T01:44:34;22.48;;;11.68;;
79064;SDS011;68469;51.502;7.462;2023-11-21T01:47:01;16.55;;;10.48;;
79064;SDS011;68469;51.502;7.462;2023-11-21T01:49:29;19.15;;;9.95;;
79064;SDS011;68469;51.502;7.462;2023-11-21T01:51:58;19.38;;;11.50;;
79064;SDS011;68469;51.502;7.462;2023-11-21T01:54:24;16.95;;;10.80;;
79064;SDS011;68469;51.502;7.462;2023-11-21T01:56:50;17.20;;;10.43;;
79064;SDS011;68469;51.502;7.462;2023-11-21T01:59:19;17.00;;;10.90;;
79064;SDS011;68469;51.502;7.462;2023-11-21T02:01:49;21.92;;;5.55;;
79064;SDS011;68469;51.502;7.462;2023-11-21T02:04:15;20.40;;;10.65;;
79064;SDS011;68469;51.502;7.462;2023-11-21T02:06:41;15.13;;;11.05;;
79064;SDS011;68469;51.502;7.462;2023-11-21T02:09:07;18.25;;;10.90;;
79064;SDS011;68469;51.502;7.462;2023-11-21T02:11:33;21.08;;;11.75;;
79064;SDS011;68469;51.502;7.462;2023-11-21T02:14:00;15.10;;;11.05;;
79064;SDS011;68469;51.502;7.462;2023-11-21T02:16:26;9.07;;;4.93;;
79064;SDS011;68469;51.502;7.462;2023-11-21T02:18:52;17.50;;;10.57;;
79064;SDS011;68469;51.502;7.462;2023-11-21T02:21:18;14.68;;;5.55;;
79064;SDS011;68469;51.502;7.462;2023-11-21T02:23:44;18.15;;;11.98;;
79064;SDS011;68469;51.502;7.462;2023-11-21T02:26:11;17.38;;;6.35;;
79064;SDS011;68469;51.502;7.462;2023-11-21T02:28:37;18.50;;;11.68;;
79064;SDS011;68469;51.502;7.462;2023-11-21T02:31:04;17.73;;;11.32;;
79064;SDS011;68469;51.502;7.462;2023-11-21T02:33:30;17.92;;;12.00;;
79064;SDS011;68469;51.502;7.462;2023-11-21T02:35:59;19.73;;;13.15;;
79064;SDS011;68469;51.502;7.462;2023-11-21T02:38:25;18.85;;;6.32;;
79064;SDS011;68469;51.502;7.462;2023-11-21T02:40:51;21.30;;;13.10;;
79064;SDS011;68469;51.502;7.462;2023-11-21T02:43:16;12.60;;;6.13;;
79064;SDS011;68469;51.502;7.462;2023-11-21T02:45:42;19.40;;;12.82;;
79064;SDS011;68469;51.502;7.462;2023-11-21T02:48:07;20.83;;;13.25;;
79064;SDS011;68469;51.502;7.462;2023-11-21T02:50:34;18.95;;;6.55;;
79064;SDS011;68469;51.502;7.462;2023-11-21T02:53:00;19.63;;;12.52;;
79064;SDS011;68469;51.502;7.462;2023-11-21T02:55:27;21.45;;;12.98;;
79064;SDS011;68469;51.502;7.462;2023-11-21T02:57:53;20.25;;;12.57;;
79064;SDS011;68469;51.502;7.462;2023-11-21T03:00:21;16.58;;;5.50;;
79064;SDS011;68469;51.502;7.462;2023-11-21T03:02:49;18.67;;;11.35;;
79064;SDS011;68469;51.502;7.462;2023-11-21T03:05:14;11.88;;;6.18;;
79064;SDS011;68469;51.502;7.462;2023-11-21T03:07:40;19.05;;;12.70;;
79064;SDS011;68469;51.502;7.462;2023-11-21T03:10:09;21.02;;;12.38;;
79064;SDS011;68469;51.502;7.462;2023-11-21T03:12:35;19.05;;;12.40;;
79064;SDS011;68469;51.502;7.462;2023-11-21T03:15:02;19.02;;;12.80;;
79064;SDS011;68469;51.502;7.462;2023-11-21T03:17:28;19.45;;;11.63;;
79064;SDS011;68469;51.502;7.462;2023-11-21T03:19:54;11.90;;;5.55;;
79064;SDS011;68469;51.502;7.462;2023-11-21T03:22:19;20.42;;;12.40;;
79064;SDS011;68469;51.502;7.462;2023-11-21T03:24:45;21.27;;;12.73;;
79064;SDS011;68469;51.502;7.462;2023-11-21T03:27:11;17.08;;;7.55;;
79064;SDS011;68469;51.502;7.462;2023-11-21T03:29:37;18.80;;;12.27;;
79064;SDS011;68469;51.502;7.462;2023-11-21T03:32:02;20.33;;;12.25;;
79064;SDS011;68469;51.502;7.462;2023-11-21T03:34:29;12.10;;;6.20;;
79064;SDS011;68469;51.502;7.462;2023-11-21T03:36:54;21.02;;;13.63;;
79064;SDS011;68469;51.502;7.462;2023-11-21T03:39:20;23.88;;;13.05;;
79064;SDS011;68469;51.502;7.462;2023-11-21T03:41:47;22.25;;;12.80;;
79064;SDS011;68469;51.502;7.462;2023-11-21T03:44:13;19.35;;;6.75;;
79064;SDS011;68469;51.502;7.462;2023-11-21T03:46:39;18.27;;;12.43;;
79064;SDS011;68469;51.502;7.462;2023-11-21T03:49:05;22.17;;;6.53;;
79064;SDS011;68469;51.502;7.462;2023-11-21T03:51:30;22.88;;;13.35;;
79064;SDS011;68469;51.502;7.462;2023-11-21T03:53:56;21.83;;;13.32;;
79064;SDS011;68469;51.502;7.462;2023-11-21T03:56:21;19.98;;;12.63;;
79064;SDS011;68469;51.502;7.462;2023-11-21T03:58:47;21.23;;;13.05;;
79064;SDS011;68469;51.502;7.462;2023-11-21T04:01:23;20.17;;;12.13;;
79064;SDS011;68469;51.502;7.462;2023-11-21T04:03:50;21.02;;;13.07;;
79064;SDS011;68469;51.502;7.462;2023-11-21T04:06:16;20.10;;;12.80;;
79064;SDS011;68469;51.502;7.462;2023-11-21T04:08:42;23.48;;;13.65;;
79064;SDS011;68469;51.502;7.462;2023-11-21T04:11:09;18.20;;;11.75;;
79064;SDS011;68469;51.502;7.462;2023-11-21T04:13:37;13.52;;;6.35;;
79064;SDS011;68469;51.502;7.462;2023-11-21T04:16:06;23.95;;;13.05;;
79064;SDS011;68469;51.502;7.462;2023-11-21T04:18:33;20.92;;;13.38;;
79064;SDS011;68469;51.502;7.462;2023-11-21T04:20:59;11.40;;;5.78;;
79064;SDS011;68469;51.502;7.462;2023-11-21T04:23:24;17.88;;;12.32;;
79064;SDS011;68469;51.502;7.462;2023-11-21T04:25:50;18.98;;;13.05;;
79064;SDS011;68469;51.502;7.462;2023-11-21T04:28:15;18.38;;;11.98;;
79064;SDS011;68469;51.502;7.462;2023-11-21T04:30:41;13.05;;;5.93;;
79064;SDS011;68469;51.502;7.462;2023-11-21T04:33:07;18.75;;;12.63;;
79064;SDS011;68469;51.502;7.462;2023-11-21T04:35:32;18.20;;;12.77;;
79064;SDS011;68469;51.502;7.462;2023-11-21T04:37:58;19.45;;;12.35;;
79064;SDS011;68469;51.502;7.462;2023-11-21T04:40:24;14.55;;;7.22;;
79064;SDS011;68469;51.502;7.462;2023-11-21T04:42:52;18.40;;;13.13;;
79064;SDS011;68469;51.502;7.462;2023-11-21T04:45:17;20.20;;;7.03;;
79064;SDS011;68469;51.502;7.462;2023-11-21T04:47:43;13.13;;;6.97;;
79064;SDS011;68469;51.502;7.462;2023-11-21T04:50:08;21.55;;;13.80;;
79064;SDS011;68469;51.502;7.462;2023-11-21T04:52:34;20.67;;;14.45;;
79064;SDS011;68469;51.502;7.462;2023-11-21T04:55:00;25.63;;;13.82;;
79064;SDS011;68469;51.502;7.462;2023-11-21T04:57:27;17.92;;;6.95;;
79064;SDS011;68469;51.502;7.462;2023-11-21T04:59:53;19.02;;;14.10;;
79064;SDS011;68469;51.502;7.462;2023-11-21T05:02:19;19.88;;;13.65;;
79064;SDS011;68469;51.502;7.462;2023-11-21T05:04:46;21.92;;;13.85;;
79064;SDS011;68469;51.502;7.462;2023-11-21T05:07:12;18.30;;;14.07;;
79064;SDS011;68469;51.502;7.462;2023-11-21T05:09:41;16.48;;;6.82;;
79064;SDS011;68469;51.502;7.462;2023-11-21T05:12:11;18.48;;;13.20;;
79064;SDS011;68469;51.502;7.462;2023-11-21T05:14:37;16.45;;;7.18;;
79064;SDS011;68469;51.502;7.462;2023-11-21T05:17:03;23.15;;;14.18;;
79064;SDS011;68469;51.502;7.462;2023-11-21T05:19:29;22.55;;;14.88;;
79064;SDS011;68469;51.502;7.462;2023-11-21T05:21:55;22.25;;;13.65;;
79064;SDS011;68469;51.502;7.462;2023-11-21T05:24:20;17.80;;;7.90;;
79064;SDS011;68469;51.502;7.462;2023-11-21T05:26:46;24.52;;;14.65;;
79064;SDS011;68469;51.502;7.462;2023-11-21T05:29:11;21.85;;;13.82;;
79064;SDS011;68469;51.502;7.462;2023-11-21T05:31:37;19.83;;;6.88;;
79064;SDS011;68469;51.502;7.462;2023-11-21T05:34:03;24.65;;;14.93;;
79064;SDS011;68469;51.502;7.462;2023-11-21T05:36:30;24.17;;;14.68;;
79064;SDS011;68469;51.502;7.462;2023-11-21T05:38:56;20.75;;;14.07;;
79064;SDS011;68469;51.502;7.462;2023-11-21T05:41:21;23.77;;;6.68;;
79064;SDS011;68469;51.502;7.462;2023-11-21T05:43:47;12.65;;;6.25;;
79064;SDS011;68469;51.502;7.462;2023-11-21T05:46:13;21.85;;;14.02;;
79064;SDS011;68469;51.502;7.462;2023-11-21T05:48:38;23.70;;;13.75;;
79064;SDS011;68469;51.502;7.462;2023-11-21T05:51:07;16.58;;;6.10;;
79064;SDS011;68469;51.502;7.462;2023-11-21T05:53:33;20.30;;;13.48;;
79064;SDS011;68469;51.502;7.462;2023-11-21T05:55:59;21.85;;;7.00;;
79064;SDS011;68469;51.502;7.462;2023-11-21T05:58:25;14.80;;;5.60;;
79064;SDS011;68469;51.502;7.462;2023-11-21T06:00:50;28.58;;;14.13;;
79064;SDS011;68469;51.502;7.462;2023-11-21T06:03:16;20.55;;;14.13;;
79064;SDS011;68469;51.502;7.462;2023-11-21T06:05:42;28.55;;;14.43;;
79064;SDS011;68469;51.502;7.462;2023-11-21T06:08:08;16.42;;;7.15;;
79064;SDS011;68469;51.502;7.462;2023-11-21T06:10:34;21.33;;;13.90;;
79064;SDS011;68469;51.502;7.462;2023-11-21T06:12:59;25.50;;;14.63;;
79064;SDS011;68469;51.502;7.462;2023-11-21T06:15:25;17.42;;;7.80;;
79064;SDS011;68469;51.502;7.462;2023-11-21T06:17:51;23.63;;;14.65;;
79064;SDS011;68469;51.502;7.462;2023-11-21T06:20:17;15.30;;;6.82;;
79064;SDS011;68469;51.502;7.462;2023-11-21T06:22:44;16.00;;;6.60;;
79064;SDS011;68469;51.502;7.462;2023-11-21T06:25:13;27.42;;;15.73;;
79064;SDS011;68469;51.502;7.462;2023-11-21T06:27:39;16.67;;;7.05;;
79064;SDS011;68469;51.502;7.462;2023-11-21T06:30:07;32.97;;;16.45;;
79064;SDS011;68469;51.502;7.462;2023-11-21T06:32:34;27.25;;;17.50;;
79064;SDS011;68469;51.502;7.462;2023-11-21T06:35:04;18.67;;;6.93;;
79064;SDS011;68469;51.502;7.462;2023-11-21T06:37:31;22.10;;;7.25;;
79064;SDS011;68469;51.502;7.462;2023-11-21T06:39:57;30.13;;;16.50;;
79064;SDS011;68469;51.502;7.462;2023-11-21T06:42:24;30.70;;;17.17;;
79064;SDS011;68469;51.502;7.462;2023-11-21T06:44:50;17.40;;;7.63;;
79064;SDS011;68469;51.502;7.462;2023-11-21T06:47:21;19.52;;;7.57;;
79064;SDS011;68469;51.502;7.462;2023-11-21T06:49:49;15.88;;;8.07;;
79064;SDS011;68469;51.502;7.462;2023-11-21T06:52:15;21.73;;;8.27;;
79064;SDS011;68469;51.502;7.462;2023-11-21T06:54:41;19.42;;;7.18;;
79064;SDS011;68469;51.502;7.462;2023-11-21T06:57:07;29.48;;;17.58;;
79064;SDS011;68469;51.502;7.462;2023-11-21T06:59:32;30.00;;;17.02;;
79064;SDS011;68469;51.502;7.462;2023-11-21T07:01:58;16.48;;;7.18;;
79064;SDS011;68469;51.502;7.462;2023-11-21T07:04:24;27.02;;;16.33;;
79064;SDS011;68469;51.502;7.462;2023-11-21T07:06:50;30.98;;;18.38;;
79064;SDS011;68469;51.502;7.462;2023-11-21T07:09:17;16.10;;;7.03;;
79064;SDS011;68469;51.502;7.462;2023-11-21T07:11:42;28.63;;;16.88;;
79064;SDS011;68469;51.502;7.462;2023-11-21T07:14:08;32.47;;;17.67;;
79064;SDS011;68469;51.502;7.462;2023-11-21T07:16:36;26.17;;;10.27;;
79064;SDS011;68469;51.502;7.462;2023-11-21T07:19:05;30.05;;;18.27;;
79064;SDS011;68469;51.502;7.462;2023-11-21T07:21:32;34.67;;;18.67;;
79064;SDS011;68469;51.502;7.462;2023-11-21T07:23:59;30.60;;;17.75;;
79064;SDS011;68469;51.502;7.462;2023-11-21T07:26:26;32.35;;;17.67;;
79064;SDS011;68469;51.502;7.462;2023-11-21T07:28:52;15.18;;;6.72;;
79064;SDS011;68469;51.502;7.462;2023-11-21T07:31:18;27.13;;;17.65;;
79064;SDS011;68469;51.502;7.462;2023-11-21T07:33:47;20.48;;;6.78;;
79064;SDS011;68469;51.502;7.462;2023-11-21T07:36:13;28.88;;;16.67;;
79064;SDS011;68469;51.502;7.462;2023-11-21T07:38:45;25.98;;;17.83;;
79064;SDS011;68469;51.502;7.462;2023-11-21T07:41:11;18.73;;;7.93;;
79064;SDS011;68469;51.502;7.462;2023-11-21T07:43:40;17.05;;;8.27;;
79064;SDS011;68469;51.502;7.462;2023-11-21T07:46:06;24.45;;;15.60;;
79064;SDS011;68469;51.502;7.462;2023-11-21T07:48:33;19.40;;;7.88;;
79064;SDS011;68469;51.502;7.462;2023-11-21T07:50:59;27.90;;;16.77;;
79064;SDS011;68469;51.502;7.462;2023-11-21T07:53:34;25.00;;;16.98;;
79064;SDS011;68469;51.502;7.462;2023-11-21T07:56:07;27.40;;;16.77;;
79064;SDS011;68469;51.502;7.462;2023-11-21T07:58:34;20.65;;;7.22;;
79064;SDS011;68469;51.502;7.462;2023-11-21T08:01:00;35.90;;;19.23;;
79064;SDS011;68469;51.502;7.462;2023-11-21T08:03:26;37.20;;;20.05;;
79064;SDS011;68469;51.502;7.462;2023-11-21T08:05:54;32.53;;;18.95;;
79064;SDS011;68469;51.502;7.462;2023-11-21T08:08:19;16.88;;;8.52;;
79064;SDS011;68469;51.502;7.462;2023-11-21T08:10:46;22.95;;;7.75;;
79064;SDS011;68469;51.502;7.462;2023-11-21T08:13:13;29.83;;;17.45;;
79064;SDS011;68469;51.502;7.462;2023-11-21T08:15:41;27.15;;;17.35;;
79064;SDS011;68469;51.502;7.462;2023-11-21T08:18:11;32.42;;;17.40;;
79064;SDS011;68469;51.502;7.462;2023-11-21T08:20:37;27.92;;;17.08;;
79064;SDS011;68469;51.502;7.462;2023-11-21T08:23:04;29.40;;;18.63;;
79064;SDS011;68469;51.502;7.462;2023-11-21T08:25:31;19.60;;;7.65;;
79064;SDS011;68469;51.502;7.462;2023-11-21T08:27:57;29.35;;;17.35;;
79064;SDS011;68469;51.502;7.462;2023-11-21T08:30:22;29.10;;;17.70;;
79064;SDS011;68469;51.502;7.462;2023-11-21T08:32:49;21.33;;;7.90;;
79064;SDS011;68469;51.502;7.462;2023-11-21T08:35:17;31.20;;;17.30;;
79064;SDS011;68469;51.502;7.462;2023-11-21T08:37:42;17.45;;;8.43;;
79064;SDS011;68469;51.502;7.462;2023-11-21T08:40:08;30.13;;;17.33;;
79064;SDS011;68469;51.502;7.462;2023-11-21T08:42:34;29.83;;;17.10;;
79064;SDS011;68469;51.502;7.462;2023-11-21T08:45:00;30.25;;;17.80;;
79064;SDS011;68469;51.502;7.462;2023-11-21T08:47:26;23.25;;;8.30;;
79064;SDS011;68469;51.502;7.462;2023-11-21T08:49:52;27.98;;;17.30;;
79064;SDS011;68469;51.502;7.462;2023-11-21T08:52:18;30.33;;;18.40;;
79064;SDS011;68469;51.502;7.462;2023-11-21T08:54:47;29.90;;;18.65;;
79064;SDS011;68469;51.502;7.462;2023-11-21T08:57:13;28.33;;;17.80;;
79064;SDS011;68469;51.502;7.462;2023-11-21T08:59:39;33.85;;;19.42;;
79064;SDS011;68469;51.502;7.462;2023-11-21T09:02:05;27.77;;;18.48;;
79064;SDS011;68469;51.502;7.462;2023-11-21T09:04:30;36.83;;;20.15;;
79064;SDS011;68469;51.502;7.462;2023-11-21T09:06:56;35.97;;;21.25;;
79064;SDS011;68469;51.502;7.462;2023-11-21T09:09:24;32.58;;;19.08;;
79064;SDS011;68469;51.502;7.462;2023-11-21T09:11:50;37.00;;;21.27;;
79064;SDS011;68469;51.502;7.462;2023-11-21T09:14:16;41.17;;;20.63;;
79064;SDS011;68469;51.502;7.462;2023-11-21T09:16:42;30.77;;;10.82;;
79064;SDS011;68469;51.502;7.462;2023-11-21T09:19:08;34.13;;;20.45;;
79064;SDS011;68469;51.502;7.462;2023-11-21T09:21:34;45.58;;;23.30;;
79064;SDS011;68469;51.502;7.462;2023-11-21T09:23:59;48.72;;;24.40;;
79064;SDS011;68469;51.502;7.462;2023-11-21T09:26:25;43.15;;;23.98;;
79064;SDS011;68469;51.502;7.462;2023-11-21T09:28:51;46.42;;;25.13;;
79064;SDS011;68469;51.502;7.462;2023-11-21T09:31:17;52.03;;;27.05;;
79064;SDS011;68469;51.502;7.462;2023-11-21T09:33:47;42.80;;;25.30;;
79064;SDS011;68469;51.502;7.462;2023-11-21T09:36:13;42.13;;;23.75;;
79064;SDS011;68469;51.502;7.462;2023-11-21T09:38:42;47.85;;;26.67;;
79064;SDS011;68469;51.502;7.462;2023-11-21T09:41:11;46.90;;;25.63;;
79064;SDS011;68469;51.502;7.462;2023-11-21T09:44:00;47.65;;;26.80;;
79064;SDS011;68469;51.502;7.462;2023-11-21T09:46:32;52.80;;;28.08;;
79064;SDS011;68469;51.502;7.462;2023-11-21T09:48:58;56.47;;;29.92;;
79064;SDS011;68469;51.502;7.462;2023-11-21T09:51:29;52.50;;;28.55;;
79064;SDS011;68469;51.502;7.462;2023-11-21T09:53:58;51.50;;;28.33;;
79064;SDS011;68469;51.502;7.462;2023-11-21T09:56:26;52.63;;;29.80;;
79064;SDS011;68469;51.502;7.462;2023-11-21T09:58:52;49.15;;;28.70;;
79064;SDS011;68469;51.502;7.462;2023-11-21T10:01:18;55.50;;;29.63;;
79064;SDS011;68469;51.502;7.462;2023-11-21T10:03:45;53.75;;;28.98;;
79064;SDS011;68469;51.502;7.462;2023-11-21T10:06:12;56.67;;;30.90;;
79064;SDS011;68469;51.502;7.462;2023-11-21T10:08:39;52.10;;;29.88;;
79064;SDS011;68469;51.502;7.462;2023-11-21T10:11:06;63.97;;;29.92;;
79064;SDS011;68469;51.502;7.462;2023-11-21T10:13:33;52.55;;;28.75;;
79064;SDS011;68469;51.502;7.462;2023-11-21T10:16:00;63.67;;;32.17;;
79064;SDS011;68469;51.502;7.462;2023-11-21T10:18:30;57.20;;;30.38;;
79064;SDS011;68469;51.502;7.462;2023-11-21T10:20:59;60.55;;;30.50;;
79064;SDS011;68469;51.502;7.462;2023-11-21T10:23:25;53.88;;;29.20;;
79064;SDS011;68469;51.502;7.462;2023-11-21T10:25:52;53.63;;;28.70;;
79064;SDS011;68469;51.502;7.462;2023-11-21T10:28:18;53.17;;;29.20;;
79064;SDS011;68469;51.502;7.462;2023-11-21T10:30:44;61.75;;;30.15;;
79064;SDS011;68469;51.502;7.462;2023-11-21T10:33:09;58.20;;;29.20;;
79064;SDS011;68469;51.502;7.462;2023-11-21T10:38:19;55.17;;;29.80;;
79064;SDS011;68469;51.502;7.462;2023-11-21T10:40:49;45.47;;;27.15;;
79064;SDS011;68469;51.502;7.462;2023-11-21T10:43:15;53.47;;;29.45;;
79064;SDS011;68469;51.502;7.462;2023-11-21T10:45:43;51.53;;;28.00;;
79064;SDS011;68469;51.502;7.462;2023-11-21T10:48:09;51.72;;;28.55;;
79064;SDS011;68469;51.502;7.462;2023-11-21T10:50:37;52.70;;;28.08;;
79064;SDS011;68469;51.502;7.462;2023-11-21T10:53:05;57.60;;;29.65;;
79064;SDS011;68469;51.502;7.462;2023-11-21T10:55:32;63.10;;;31.98;;
79064;SDS011;68469;51.502;7.462;2023-11-21T10:57:59;58.42;;;28.85;;
79064;SDS011;68469;51.502;7.462;2023-11-21T11:00:27;66.95;;;31.13;;
79064;SDS011;68469;51.502;7.462;2023-11-21T11:02:53;65.15;;;30.05;;
79064;SDS011;68469;51.502;7.462;2023-11-21T11:05:20;68.03;;;32.80;;
79064;SDS011;68469;51.502;7.462;2023-11-21T11:07:49;65.95;;;30.88;;
79064;SDS011;68469;51.502;7.462;2023-11-21T11:10:20;59.15;;;29.23;;
79064;SDS011;68469;51.502;7.462;2023-11-21T11:12:47;55.42;;;26.95;;
79064;SDS011;68469;51.502;7.462;2023-11-21T11:15:14;45.95;;;25.13;;
79064;SDS011;68469;51.502;7.462;2023-11-21T11:17:45;56.00;;;27.98;;
79064;SDS011;68469;51.502;7.462;2023-11-21T11:20:11;55.08;;;28.85;;
79064;SDS011;68469;51.502;7.462;2023-11-21T11:22:48;61.80;;;28.02;;
79064;SDS011;68469;51.502;7.462;2023-11-21T11:28:27;40.72;;;22.58;;
79064;SDS011;68469;51.502;7.462;2023-11-21T11:31:04;40.33;;;22.25;;
79064;SDS011;68469;51.502;7.462;2023-11-21T11:36:56;44.60;;;23.80;;
79064;SDS011;68469;51.502;7.462;2023-11-21T11:39:32;41.33;;;23.48;;
79064;SDS011;68469;51.502;7.462;2023-11-21T11:42:02;42.47;;;25.00;;
79064;SDS011;68469;51.502;7.462;2023-11-21T11:47:26;39.33;;;24.63;;
79064;SDS011;68469;51.502;7.462;2023-11-21T11:52:51;50.95;;;26.70;;
79064;SDS011;68469;51.502;7.462;2023-11-21T11:55:20;41.67;;;25.33;;
79064;SDS011;68469;51.502;7.462;2023-11-21T11:57:47;36.83;;;24.00;;
79064;SDS011;68469;51.502;7.462;2023-11-21T12:00:22;43.72;;;25.30;;
79064;SDS011;68469;51.502;7.462;2023-11-21T12:03:00;36.22;;;23.35;;
79064;SDS011;68469;51.502;7.462;2023-11-21T12:05:30;39.55;;;23.42;;
79064;SDS011;68469;51.502;7.462;2023-11-21T12:07:58;34.63;;;23.05;;
79064;SDS011;68469;51.502;7.462;2023-11-21T12:10:26;32.75;;;21.23;;
79064;SDS011;68469;51.502;7.462;2023-11-21T12:12:54;28.35;;;19.67;;
79064;SDS011;68469;51.502;7.462;2023-11-21T12:15:21;32.00;;;21.40;;
79064;SDS011;68469;51.502;7.462;2023-11-21T12:17:48;29.17;;;19.20;;
79064;SDS011;68469;51.502;7.462;2023-11-21T12:20:15;27.88;;;20.13;;
79064;SDS011;68469;51.502;7.462;2023-11-21T12:22:45;29.83;;;20.27;;
79064;SDS011;68469;51.502;7.462;2023-11-21T12:25:23;29.13;;;20.98;;
79064;SDS011;68469;51.502;7.462;2023-11-21T12:27:52;32.42;;;21.23;;
79064;SDS011;68469;51.502;7.462;2023-11-21T12:30:19;31.10;;;22.45;;
79064;SDS011;68469;51.502;7.462;2023-11-21T12:32:58;39.30;;;28.98;;
79064;SDS011;68469;51.502;7.462;2023-11-21T12:35:26;36.58;;;25.52;;
79064;SDS011;68469;51.502;7.462;2023-11-21T12:37:58;36.35;;;25.75;;
79064;SDS011;68469;51.502;7.462;2023-11-21T12:40:24;36.65;;;26.45;;
79064;SDS011;68469;51.502;7.462;2023-11-21T12:42:55;40.00;;;28.35;;
79064;SDS011;68469;51.502;7.462;2023-11-21T12:45:23;37.70;;;27.42;;
79064;SDS011;68469;51.502;7.462;2023-11-21T12:50:32;40.45;;;29.40;;
79064;SDS011;68469;51.502;7.462;2023-11-21T12:53:08;40.53;;;30.25;;
79064;SDS011;68469;51.502;7.462;2023-11-21T12:55:35;38.67;;;28.70;;
79064;SDS011;68469;51.502;7.462;2023-11-21T12:58:05;35.90;;;27.30;;
79064;SDS011;68469;51.502;7.462;2023-11-21T13:00:35;36.20;;;27.48;;
79064;SDS011;68469;51.502;7.462;2023-11-21T13:03:04;34.97;;;27.67;;
79064;SDS011;68469;51.502;7.462;2023-11-21T13:05:34;34.72;;;22.45;;
79064;SDS011;68469;51.502;7.462;2023-11-21T13:08:04;27.23;;;20.60;;
79064;SDS011;68469;51.502;7.462;2023-11-21T13:10:33;22.30;;;15.52;;
79064;SDS011;68469;51.502;7.462;2023-11-21T13:13:02;20.35;;;15.55;;
79064;SDS011;68469;51.502;7.462;2023-11-21T13:15:30;20.95;;;14.13;;
79064;SDS011;68469;51.502;7.462;2023-11-21T13:17:57;20.55;;;15.27;;
79064;SDS011;68469;51.502;7.462;2023-11-21T13:20:27;19.65;;;15.07;;
79064;SDS011;68469;51.502;7.462;2023-11-21T13:22:53;20.20;;;15.30;;
79064;SDS011;68469;51.502;7.462;2023-11-21T13:25:23;22.88;;;16.77;;
79064;SDS011;68469;51.502;7.462;2023-11-21T13:27:52;27.58;;;20.83;;
79064;SDS011;68469;51.502;7.462;2023-11-21T13:30:18;27.98;;;19.90;;
79064;SDS011;68469;51.502;7.462;2023-11-21T13:32:51;21.58;;;16.50;;
79064;SDS011;68469;51.502;7.462;2023-11-21T13:35:17;21.70;;;17.00;;
79064;SDS011;68469;51.502;7.462;2023-11-21T13:37:51;22.48;;;16.20;;
79064;SDS011;68469;51.502;7.462;2023-11-21T13:40:21;22.23;;;15.30;;
79064;SDS011;68469;51.502;7.462;2023-11-21T13:42:51;18.30;;;7.93;;
79064;SDS011;68469;51.502;7.462;2023-11-21T13:45:22;22.10;;;15.10;;
79064;SDS011;68469;51.502;7.462;2023-11-21T13:47:49;21.55;;;13.23;;
79064;SDS011;68469;51.502;7.462;2023-11-21T13:50:25;18.88;;;13.57;;
79064;SDS011;68469;51.502;7.462;2023-11-21T13:53:01;16.98;;;12.38;;
79064;SDS011;68469;51.502;7.462;2023-11-21T13:55:33;18.38;;;12.95;;
79064;SDS011;68469;51.502;7.462;2023-11-21T13:58:00;17.05;;;12.20;;
79064;SDS011;68469;51.502;7.462;2023-11-21T14:03:11;17.33;;;11.45;;
79064;SDS011;68469;51.502;7.462;2023-11-21T14:05:47;17.58;;;12.23;;
79064;SDS011;68469;51.502;7.462;2023-11-21T14:08:17;17.88;;;13.32;;
79064;SDS011;68469;51.502;7.462;2023-11-21T14:10:49;19.15;;;13.65;;
79064;SDS011;68469;51.502;7.462;2023-11-21T14:13:18;16.98;;;7.20;;
79064;SDS011;68469;51.502;7.462;2023-11-21T14:15:45;22.50;;;14.27;;
79064;SDS011;68469;51.502;7.462;2023-11-21T14:18:12;19.40;;;14.30;;
79064;SDS011;68469;51.502;7.462;2023-11-21T14:20:42;20.77;;;8.35;;
79064;SDS011;68469;51.502;7.462;2023-11-21T14:23:09;22.23;;;16.30;;
79064;SDS011;68469;51.502;7.462;2023-11-21T14:25:35;19.67;;;14.18;;
79064;SDS011;68469;51.502;7.462;2023-11-21T14:28:02;19.70;;;13.18;;
79064;SDS011;68469;51.502;7.462;2023-11-21T14:30:29;15.20;;;11.90;;
79064;SDS011;68469;51.502;7.462;2023-11-21T14:32:58;13.63;;;10.57;;
79064;SDS011;68469;51.502;7.462;2023-11-21T14:35:24;13.77;;;10.23;;
79064;SDS011;68469;51.502;7.462;2023-11-21T14:37:50;10.82;;;8.77;;
79064;SDS011;68469;51.502;7.462;2023-11-21T14:40:15;13.55;;;8.85;;
79064;SDS011;68469;51.502;7.462;2023-11-21T14:42:42;10.50;;;8.20;;
79064;SDS011;68469;51.502;7.462;2023-11-21T14:45:08;8.32;;;4.13;;
79064;SDS011;68469;51.502;7.462;2023-11-21T14:47:37;11.68;;;8.95;;